KDYS/DYS METAR and TAF weather

Enter ICAO airport designator
Station Type Date Time Source
KDYS METAR 2020/11/27 13:56 UTC NOAA

KDYS 271356Z AUTO 33008KT 10SM CLR 07/M01 A3012 RMK AO2 SLP192 T00661013


Station Type Date Time Source
KDYS Decoded METAR 2020/11/27 13:56 UTC NOAA

Abilene, Dyess Air Force Base, TX, United States (KDYS) 32-25-12N 099-51-25W
Nov 27, 2020 - 08:56 AM EST / 2020.11.27 1356 UTC
Wind: from the NNW (330 degrees) at 9 MPH (8 KT):0
Visibility: 10 mile(s):0
Sky conditions: clear
Temperature: 43.9 F (6.6 C)
Dew Point: 29.7 F (-1.3 C)
Relative Humidity: 57%
Pressure (altimeter): 30.12 in. Hg (1019 hPa)
ob: KDYS 271356Z AUTO 33008KT 10SM CLR 07/M01 A3012 RMK AO2 SLP192 T00661013
cycle: 14

Station Type Date Time Source
KDYS TAF 2020/11/26 16:41 UTC NOAA

TAF
AMD KDYS 261630Z 2616/2716 19012G18KT 9999 FEW200 QNH2990INS
TEMPO 2616/2620 21015G25KT
BECMG 2700/2701 VRB06KT 9999 FEW200 QNH2997INS
BECMG 2705/2706 03012G18KT 9999 FEW050 SCT120 QNH3008INS TX25/2622Z TN10/2707Z LAST NO
AMDS AFT 2616 NEXT 3013

Example: see airport list